createdAt,value
2022-10-30T00:00:24.166Z,101807.81
2022-10-30T00:03:14.554Z,101803.52
2022-10-30T00:06:05.808Z,101790.35
2022-10-30T00:08:34.235Z,101781.55
2022-10-30T00:11:10.295Z,101785.23
2022-10-30T00:13:39.256Z,101783.36
2022-10-30T00:16:08.760Z,101783.24
2022-10-30T00:18:38.577Z,101773.88
2022-10-30T00:21:08.953Z,101763.26
2022-10-30T00:23:54.563Z,101766.29
2022-10-30T00:26:25.168Z,101765.00
2022-10-30T00:29:10.619Z,101777.36
2022-10-30T00:31:38.682Z,101783.02
2022-10-30T00:34:24.211Z,101788.50
2022-10-30T00:36:52.429Z,101796.08
2022-10-30T00:39:20.419Z,101796.59
2022-10-30T00:42:06.084Z,101797.77
2022-10-30T00:44:38.846Z,101794.80
2022-10-30T00:47:24.131Z,101791.88
2022-10-30T00:50:08.148Z,101785.64
2022-10-30T00:52:42.935Z,101782.74
2022-10-30T00:55:19.683Z,101776.58
2022-10-30T00:57:48.426Z,101777.52
2022-10-30T01:00:18.596Z,101779.80
2022-10-30T01:02:46.967Z,101784.02
2022-10-30T01:05:18.927Z,101788.02
2022-10-30T01:07:47.638Z,101786.98
2022-10-30T01:10:16.219Z,101788.55
2022-10-30T01:13:02.983Z,101789.52
2022-10-30T01:15:37.129Z,101797.31
2022-10-30T01:18:23.526Z,101807.34
2022-10-30T01:20:54.290Z,101809.42
2022-10-30T01:24:14.742Z,101805.64
2022-10-30T01:27:00.500Z,101800.86
2022-10-30T01:29:50.099Z,101803.83
2022-10-30T01:32:28.135Z,101805.03
2022-10-30T01:35:21.719Z,101802.60
2022-10-30T01:38:15.996Z,101803.48
2022-10-30T01:41:02.874Z,101801.48
2022-10-30T01:43:32.840Z,101800.73
2022-10-30T01:46:24.398Z,101799.90
2022-10-30T01:49:34.530Z,101801.88
2022-10-30T01:52:33.188Z,101810.00
2022-10-30T01:55:31.618Z,101810.25
2022-10-30T01:58:18.826Z,101810.38
2022-10-30T02:00:52.703Z,101804.46
2022-10-30T02:03:22.323Z,101800.91
2022-10-30T02:05:52.406Z,101803.12
2022-10-30T02:08:38.381Z,101807.06
2022-10-30T02:11:06.797Z,101801.94
2022-10-30T02:13:38.991Z,101797.58
2022-10-30T02:16:07.986Z,101795.46
2022-10-30T02:18:53.661Z,101792.89
2022-10-30T02:21:21.944Z,101797.89
2022-10-30T02:23:50.057Z,101798.45
2022-10-30T02:26:18.070Z,101793.64
2022-10-30T02:28:46.090Z,101796.10
2022-10-30T02:31:14.186Z,101799.98
2022-10-30T02:34:00.172Z,101806.14
2022-10-30T02:36:28.566Z,101810.59
2022-10-30T02:38:56.887Z,101809.77
2022-10-30T02:41:25.097Z,101810.08
2022-10-30T02:43:53.745Z,101805.82
2022-10-30T02:46:22.157Z,101806.38
2022-10-30T02:49:07.644Z,101809.11
2022-10-30T02:51:36.066Z,101807.64
2022-10-30T02:54:05.045Z,101801.60
2022-10-30T02:56:33.353Z,101802.09
2022-10-30T02:59:01.788Z,101803.30
2022-10-30T03:01:32.406Z,101799.20
2022-10-30T03:04:00.938Z,101785.34
2022-10-30T03:06:29.931Z,101796.47
2022-10-30T03:08:59.191Z,101797.69
2022-10-30T03:11:27.450Z,101796.68
2022-10-30T03:13:55.992Z,101779.41
2022-10-30T03:16:26.008Z,101790.79
2022-10-30T03:18:55.767Z,101788.27
2022-10-30T03:21:26.191Z,101795.84
2022-10-30T03:23:55.367Z,101791.77
2022-10-30T03:26:23.727Z,101805.46
2022-10-30T03:29:12.405Z,101811.27
2022-10-30T03:31:40.580Z,101817.00
2022-10-30T03:34:12.304Z,101794.66
2022-10-30T03:36:42.811Z,101798.50
2022-10-30T03:39:11.015Z,101817.20
2022-10-30T03:41:39.321Z,101811.20
2022-10-30T03:44:08.323Z,101810.69
2022-10-30T03:46:36.486Z,101810.56
2022-10-30T03:49:15.318Z,101806.54
2022-10-30T03:51:43.912Z,101824.22
2022-10-30T03:54:12.036Z,101818.55
2022-10-30T03:56:40.239Z,101798.57
2022-10-30T03:59:09.120Z,101805.33
2022-10-30T04:01:39.137Z,101817.04
2022-10-30T04:04:07.483Z,101818.40
2022-10-30T04:06:53.443Z,101821.11
2022-10-30T04:09:22.947Z,101809.44
2022-10-30T04:12:08.631Z,101813.20
2022-10-30T04:14:36.679Z,101823.63
2022-10-30T04:17:06.428Z,101830.57
2022-10-30T04:19:52.227Z,101831.83
2022-10-30T04:22:38.122Z,101817.84
2022-10-30T04:25:06.671Z,101804.55
2022-10-30T04:27:41.209Z,101798.84
2022-10-30T04:30:34.166Z,101809.89
2022-10-30T04:33:19.807Z,101815.91
2022-10-30T04:35:48.139Z,101824.41
2022-10-30T04:38:19.739Z,101827.82
2022-10-30T04:40:48.127Z,101826.72
2022-10-30T04:43:16.822Z,101821.15
2022-10-30T04:46:06.075Z,101819.54
2022-10-30T04:48:36.293Z,101804.92
2022-10-30T04:51:21.591Z,101816.40
2022-10-30T04:53:49.793Z,101818.99
2022-10-30T04:56:17.866Z,101815.55
2022-10-30T04:58:45.979Z,101790.44
2022-10-30T05:01:14.211Z,101807.84
2022-10-30T05:03:42.339Z,101805.06
2022-10-30T05:06:26.693Z,101810.33
2022-10-30T05:08:55.889Z,101810.98
2022-10-30T05:11:38.730Z,101814.59
2022-10-30T05:14:28.121Z,101822.35
2022-10-30T05:16:56.448Z,101823.84
2022-10-30T05:19:24.980Z,101822.97
2022-10-30T05:21:54.748Z,101818.98
2022-10-30T05:24:22.924Z,101828.10
2022-10-30T05:26:51.097Z,101836.52
2022-10-30T05:29:19.144Z,101834.48
2022-10-30T05:31:47.197Z,101835.66
2022-10-30T05:34:35.702Z,101833.27
2022-10-30T05:37:04.394Z,101831.55
2022-10-30T05:39:32.490Z,101830.07
2022-10-30T05:42:00.516Z,101824.48
2022-10-30T05:44:59.271Z,101839.33
2022-10-30T05:47:27.463Z,101845.61
2022-10-30T05:49:56.229Z,101846.79
2022-10-30T05:52:25.613Z,101844.08
2022-10-30T05:54:53.812Z,101849.52
2022-10-30T05:57:42.029Z,101849.85
2022-10-30T06:00:11.605Z,101850.02
2022-10-30T06:02:45.573Z,101850.66
2022-10-30T06:05:16.047Z,101855.59
2022-10-30T06:07:44.225Z,101859.27
2022-10-30T06:10:12.608Z,101863.63
2022-10-30T06:13:17.878Z,101864.17
2022-10-30T06:16:12.440Z,101858.48
2022-10-30T06:18:59.117Z,101861.46
2022-10-30T06:21:46.753Z,101860.73
2022-10-30T06:24:33.157Z,101859.05
2022-10-30T06:27:10.138Z,101855.20
2022-10-30T06:29:38.260Z,101853.24
2022-10-30T06:32:07.076Z,101855.08
2022-10-30T06:34:35.451Z,101860.46
2022-10-30T06:37:03.754Z,101860.28
2022-10-30T06:39:49.640Z,101855.34
2022-10-30T06:42:29.757Z,101854.54
2022-10-30T06:45:11.043Z,101854.40
2022-10-30T06:47:57.066Z,101850.45
2022-10-30T06:50:26.091Z,101854.34
2022-10-30T06:52:55.905Z,101855.15
2022-10-30T06:55:24.185Z,101861.67
2022-10-30T06:58:29.423Z,101857.02
2022-10-30T07:01:23.731Z,101851.06
2022-10-30T07:04:02.980Z,101849.11
2022-10-30T07:06:31.222Z,101851.14
2022-10-30T07:09:01.203Z,101850.80
2022-10-30T07:11:29.736Z,101855.77
2022-10-30T07:14:03.565Z,101849.62
2022-10-30T07:16:57.750Z,101855.56
2022-10-30T07:19:28.570Z,101860.56
2022-10-30T07:21:57.647Z,101862.39
2022-10-30T07:24:43.538Z,101863.20
2022-10-30T07:27:29.965Z,101861.33
2022-10-30T07:30:10.172Z,101863.86
2022-10-30T07:33:04.567Z,101869.86
2022-10-30T07:35:51.523Z,101866.56
2022-10-30T07:38:31.708Z,101865.52
2022-10-30T07:41:10.055Z,101873.09
2022-10-30T07:43:45.003Z,101874.05
2022-10-30T07:46:31.569Z,101869.46
2022-10-30T07:49:22.070Z,101866.75
2022-10-30T07:51:52.226Z,101866.84
2022-10-30T07:54:20.280Z,101871.92
2022-10-30T07:57:06.718Z,101870.98
2022-10-30T07:59:56.927Z,101873.19
2022-10-30T08:03:00.581Z,101875.95
2022-10-30T08:05:54.571Z,101876.74
2022-10-30T08:08:43.580Z,101875.27
2022-10-30T08:11:55.890Z,101880.86
2022-10-30T08:14:24.507Z,101888.61
2022-10-30T08:16:55.758Z,101894.21
2022-10-30T08:19:24.062Z,101893.58
2022-10-30T08:21:57.631Z,101892.95
2022-10-30T08:24:28.290Z,101892.54
2022-10-30T08:26:57.074Z,101881.33
2022-10-30T08:29:27.803Z,101886.22
2022-10-30T08:32:14.542Z,101879.29
2022-10-30T08:35:09.150Z,101874.27
2022-10-30T08:37:56.702Z,101882.72
2022-10-30T08:40:26.067Z,101882.91
2022-10-30T08:43:03.475Z,101878.33
2022-10-30T08:45:33.130Z,101877.96
2022-10-30T08:48:15.353Z,101880.98
2022-10-30T08:50:45.413Z,101874.80
2022-10-30T08:53:16.064Z,101870.83
2022-10-30T08:56:03.221Z,101877.52
2022-10-30T08:58:40.461Z,101869.34
2022-10-30T09:01:09.114Z,101863.63
2022-10-30T09:03:57.408Z,101860.94
2022-10-30T09:06:45.805Z,101861.09
2022-10-30T09:09:50.205Z,101856.37
2022-10-30T09:12:18.757Z,101854.10
2022-10-30T09:15:05.805Z,101856.30
2022-10-30T09:18:00.637Z,101856.84
2022-10-30T09:20:29.563Z,101860.55
2022-10-30T09:22:59.166Z,101863.14
2022-10-30T09:25:27.909Z,101865.56
2022-10-30T09:28:08.527Z,101866.13
2022-10-30T09:30:53.239Z,101869.83
2022-10-30T09:33:40.259Z,101875.81
2022-10-30T09:37:01.554Z,101875.08
2022-10-30T09:39:50.134Z,101874.20
2022-10-30T09:42:37.750Z,101873.56
2022-10-30T09:45:29.216Z,101878.05
2022-10-30T09:48:05.320Z,101870.55
2022-10-30T09:50:56.150Z,101861.84
2022-10-30T09:53:45.636Z,101868.69
2022-10-30T09:56:29.367Z,101858.85
2022-10-30T09:59:11.462Z,101860.13
2022-10-30T10:01:39.905Z,101867.90
2022-10-30T10:04:42.059Z,101862.53
2022-10-30T10:07:25.669Z,101877.13
2022-10-30T10:10:06.981Z,101882.08
2022-10-30T10:12:46.933Z,101883.01
2022-10-30T10:15:52.078Z,101882.38
2022-10-30T10:18:28.179Z,101858.12
2022-10-30T10:21:02.156Z,101877.50
2022-10-30T10:23:50.765Z,101882.96
2022-10-30T10:26:36.130Z,101880.79
2022-10-30T10:29:10.294Z,101884.34
2022-10-30T10:32:16.433Z,101870.79
2022-10-30T10:35:05.914Z,101872.70
2022-10-30T10:37:59.270Z,101868.68
2022-10-30T10:40:52.151Z,101863.48
2022-10-30T10:43:45.102Z,101859.92
2022-10-30T10:46:36.161Z,101861.95
2022-10-30T10:49:31.571Z,101865.95
2022-10-30T10:52:08.844Z,101869.54
2022-10-30T10:54:50.666Z,101862.83
2022-10-30T10:57:40.552Z,101867.27
2022-10-30T11:00:18.161Z,101862.47
2022-10-30T11:03:04.582Z,101861.98
2022-10-30T11:05:48.088Z,101858.16
2022-10-30T11:08:37.799Z,101861.56
2022-10-30T11:11:07.693Z,101867.45
2022-10-30T11:13:54.611Z,101865.60
2022-10-30T11:17:08.497Z,101866.98
2022-10-30T11:20:17.602Z,101862.41
2022-10-30T11:22:51.141Z,101860.81
2022-10-30T11:25:33.036Z,101855.53
2022-10-30T11:28:34.137Z,101855.26
2022-10-30T11:31:18.690Z,101866.94
2022-10-30T11:33:48.153Z,101863.77
2022-10-30T11:36:36.211Z,101860.54
2022-10-30T11:39:27.389Z,101843.27
2022-10-30T11:41:57.176Z,101858.81
2022-10-30T11:44:50.701Z,101859.53
2022-10-30T11:47:24.240Z,101862.55
2022-10-30T11:50:16.468Z,101863.05
2022-10-30T11:52:45.286Z,101851.25
2022-10-30T11:55:22.552Z,101862.70
2022-10-30T11:57:53.141Z,101865.41
2022-10-30T12:00:45.374Z,101865.02
2022-10-30T12:03:37.141Z,101863.30
2022-10-30T12:06:10.323Z,101864.48
2022-10-30T12:09:04.076Z,101861.30
2022-10-30T12:11:34.792Z,101863.64
2022-10-30T12:14:23.187Z,101862.55
2022-10-30T12:16:54.693Z,101861.98
2022-10-30T12:19:47.766Z,101860.30
2022-10-30T12:22:29.429Z,101865.79
2022-10-30T12:25:26.142Z,101863.42
2022-10-30T12:28:13.638Z,101860.70
2022-10-30T12:31:06.900Z,101860.39
2022-10-30T12:33:45.538Z,101857.67
2022-10-30T12:36:26.735Z,101852.11
2022-10-30T12:38:58.376Z,101841.16
2022-10-30T12:42:13.556Z,101855.70
2022-10-30T12:44:49.818Z,101857.92
2022-10-30T12:47:30.584Z,101849.88
2022-10-30T12:52:45.794Z,101844.59
2022-10-30T12:55:31.274Z,101843.27
2022-10-30T12:58:45.510Z,101843.45
2022-10-30T13:01:31.860Z,101841.73
2022-10-30T13:04:10.938Z,101841.14
2022-10-30T13:07:11.170Z,101838.85
2022-10-30T13:09:57.050Z,101838.28
2022-10-30T13:12:46.915Z,101838.88
2022-10-30T13:15:29.485Z,101845.52
2022-10-30T13:18:15.868Z,101845.36
2022-10-30T13:20:53.207Z,101845.77
2022-10-30T13:23:56.831Z,101838.44
2022-10-30T13:27:00.815Z,101839.52
2022-10-30T13:30:05.529Z,101837.66
2022-10-30T13:33:10.441Z,101842.28
2022-10-30T13:35:59.623Z,101844.23
2022-10-30T13:38:52.621Z,101830.38
2022-10-30T13:41:43.305Z,101839.42
2022-10-30T13:44:42.766Z,101840.22
2022-10-30T13:47:34.674Z,101841.15
2022-10-30T13:50:29.190Z,101845.04
2022-10-30T13:53:19.641Z,101835.80
2022-10-30T13:55:49.439Z,101831.92
2022-10-30T13:58:36.003Z,101828.29
2022-10-30T14:01:25.122Z,101832.94
2022-10-30T14:03:53.195Z,101835.40
2022-10-30T14:06:26.891Z,101834.23
2022-10-30T14:09:07.081Z,101839.24
2022-10-30T14:11:35.196Z,101837.97
2022-10-30T14:14:28.288Z,101833.92
2022-10-30T14:17:16.944Z,101830.88
2022-10-30T14:20:12.105Z,101836.66
2022-10-30T14:22:43.170Z,101835.80
2022-10-30T14:25:16.314Z,101833.58
2022-10-30T14:27:56.138Z,101834.94
2022-10-30T14:30:28.474Z,101837.98
2022-10-30T14:32:56.781Z,101836.94
2022-10-30T14:35:31.413Z,101834.52
2022-10-30T14:38:22.528Z,101838.20
2022-10-30T14:40:53.667Z,101840.27
2022-10-30T14:43:56.276Z,101838.84
2022-10-30T14:46:38.752Z,101835.65
2022-10-30T14:49:36.965Z,101834.30
2022-10-30T14:52:15.297Z,101835.27
2022-10-30T14:55:26.932Z,101838.27
2022-10-30T14:58:03.830Z,101833.55
2022-10-30T15:00:43.511Z,101834.34
2022-10-30T15:03:20.694Z,101828.30
2022-10-30T15:05:51.565Z,101828.19
2022-10-30T15:08:25.461Z,101822.56
2022-10-30T15:11:14.052Z,101831.85
2022-10-30T15:14:20.936Z,101834.38
2022-10-30T15:16:54.824Z,101842.39
2022-10-30T15:19:24.782Z,101846.75
2022-10-30T15:21:55.591Z,101843.26
2022-10-30T15:24:41.529Z,101844.06
2022-10-30T15:27:17.209Z,101842.05
2022-10-30T15:30:04.579Z,101848.80
2022-10-30T15:32:50.875Z,101852.17
2022-10-30T15:35:20.150Z,101849.42
2022-10-30T15:38:10.579Z,101848.09
2022-10-30T15:40:38.995Z,101845.88
2022-10-30T15:43:11.755Z,101846.23
2022-10-30T15:45:45.191Z,101840.81
2022-10-30T15:48:27.395Z,101837.41
2022-10-30T15:51:15.586Z,101843.40
2022-10-30T15:53:43.549Z,101848.23
2022-10-30T15:57:06.740Z,101850.73
2022-10-30T15:59:33.902Z,101843.29
2022-10-30T16:02:02.167Z,101838.61
2022-10-30T16:04:36.792Z,101841.69
2022-10-30T16:07:25.690Z,101846.12
2022-10-30T16:09:57.166Z,101848.87
2022-10-30T16:12:43.406Z,101847.14
2022-10-30T16:15:30.275Z,101851.62
2022-10-30T16:18:13.506Z,101858.20
2022-10-30T16:20:44.967Z,101856.25
2022-10-30T16:23:14.325Z,101856.98
2022-10-30T16:25:47.061Z,101853.58
2022-10-30T16:28:46.973Z,101857.86
2022-10-30T16:31:16.244Z,101857.81
2022-10-30T16:34:03.639Z,101863.94
2022-10-30T16:36:32.589Z,101864.78
2022-10-30T16:39:01.269Z,101864.38
2022-10-30T16:41:31.376Z,101867.33
2022-10-30T16:44:08.613Z,101850.01
2022-10-30T16:46:40.301Z,101859.91
2022-10-30T16:49:19.203Z,101861.87
2022-10-30T16:51:48.130Z,101856.85
2022-10-30T16:54:22.065Z,101856.61
2022-10-30T16:56:53.893Z,101853.48
2022-10-30T16:59:27.142Z,101854.95
2022-10-30T17:02:00.916Z,101859.50
2022-10-30T17:04:29.885Z,101861.02
2022-10-30T17:07:18.752Z,101860.90
2022-10-30T17:09:52.313Z,101862.80
2022-10-30T17:12:22.123Z,101867.31
2022-10-30T17:15:21.128Z,101869.21
2022-10-30T17:18:11.312Z,101868.27
2022-10-30T17:20:40.034Z,101868.65
2022-10-30T17:23:25.944Z,101871.02
2022-10-30T17:25:55.943Z,101877.27
2022-10-30T17:28:29.872Z,101879.14
2022-10-30T17:30:57.920Z,101879.84
2022-10-30T17:33:44.196Z,101878.66
2022-10-30T17:36:12.754Z,101877.75
2022-10-30T17:38:59.666Z,101877.04
2022-10-30T17:41:29.731Z,101881.98
2022-10-30T17:43:57.993Z,101874.17
2022-10-30T17:46:26.304Z,101885.67
2022-10-30T17:48:54.748Z,101889.05
2022-10-30T17:51:23.468Z,101892.36
2022-10-30T17:54:13.708Z,101892.30
2022-10-30T17:56:42.292Z,101891.31
2022-10-30T17:59:10.568Z,101892.76
2022-10-30T18:01:39.345Z,101876.89
2022-10-30T18:04:25.389Z,101890.94
2022-10-30T18:06:53.601Z,101890.90
2022-10-30T18:09:21.856Z,101885.70
2022-10-30T18:11:50.164Z,101887.55
2022-10-30T18:14:18.484Z,101888.45
2022-10-30T18:16:50.132Z,101888.25
2022-10-30T18:19:21.088Z,101886.34
2022-10-30T18:21:51.901Z,101884.08
2022-10-30T18:24:21.182Z,101885.68
2022-10-30T18:26:49.299Z,101883.35
2022-10-30T18:29:17.352Z,101887.69
2022-10-30T18:32:08.396Z,101883.91
2022-10-30T18:34:37.914Z,101884.48
2022-10-30T18:37:05.985Z,101883.77
2022-10-30T18:39:51.413Z,101886.55
2022-10-30T18:42:19.774Z,101889.46
2022-10-30T18:44:47.866Z,101890.60
2022-10-30T18:47:34.017Z,101890.08
2022-10-30T18:50:03.251Z,101887.05
2022-10-30T18:52:31.703Z,101890.64
2022-10-30T18:55:00.179Z,101893.45
2022-10-30T18:57:28.223Z,101897.13
2022-10-30T18:59:56.346Z,101898.69
2022-10-30T19:02:24.594Z,101891.75
2022-10-30T19:04:53.003Z,101890.08
2022-10-30T19:07:21.206Z,101888.05
2022-10-30T19:09:49.439Z,101888.48
2022-10-30T19:12:38.452Z,101877.48
2022-10-30T19:15:36.357Z,101889.10
2022-10-30T19:18:25.514Z,101892.15
2022-10-30T19:21:15.408Z,101892.77
2022-10-30T19:23:42.232Z,101892.60
2022-10-30T19:28:41.131Z,101897.80
2022-10-30T19:31:19.484Z,101902.55
2022-10-30T19:33:51.516Z,101900.20
2022-10-30T19:36:34.031Z,101901.30
2022-10-30T19:39:08.965Z,101899.92
2022-10-30T19:41:38.945Z,101904.67
2022-10-30T19:44:07.259Z,101904.50
2022-10-30T19:46:36.987Z,101907.34
2022-10-30T19:49:16.261Z,101901.14
2022-10-30T19:51:44.658Z,101903.25
2022-10-30T19:54:12.964Z,101905.79
2022-10-30T19:56:43.586Z,101907.23
2022-10-30T19:59:15.698Z,101909.98
2022-10-30T20:02:01.044Z,101907.55
2022-10-30T20:04:29.193Z,101910.61
2022-10-30T20:07:02.092Z,101908.38
2022-10-30T20:09:48.257Z,101905.89
2022-10-30T20:12:34.013Z,101903.31
2022-10-30T20:15:02.240Z,101905.83
2022-10-30T20:17:30.339Z,101905.34
2022-10-30T20:19:58.374Z,101906.96
2022-10-30T20:22:28.432Z,101908.90
2022-10-30T20:24:56.988Z,101909.11
2022-10-30T20:27:26.673Z,101905.23
2022-10-30T20:29:54.779Z,101903.82
2022-10-30T20:32:23.075Z,101902.48
2022-10-30T20:34:51.234Z,101905.11
2022-10-30T20:37:19.366Z,101902.92
2022-10-30T20:39:50.121Z,101898.77
2022-10-30T20:42:37.464Z,101884.67
2022-10-30T20:45:06.704Z,101904.52
2022-10-30T20:47:34.934Z,101899.78
2022-10-30T20:50:21.312Z,101885.23
2022-10-30T20:52:49.567Z,101896.48
2022-10-30T20:55:17.814Z,101896.33
2022-10-30T20:58:03.861Z,101890.95
2022-10-30T21:00:50.432Z,101890.80
2022-10-30T21:03:18.577Z,101889.71
2022-10-30T21:05:46.860Z,101888.67
2022-10-30T21:08:15.067Z,101887.58
2022-10-30T21:10:43.149Z,101883.11
2022-10-30T21:13:29.450Z,101883.17
2022-10-30T21:16:15.474Z,101881.73
2022-10-30T21:18:43.714Z,101841.24
2022-10-30T21:21:13.557Z,101865.23
2022-10-30T21:23:41.661Z,101879.11
2022-10-30T21:26:11.910Z,101877.27
2022-10-30T21:28:40.976Z,101871.52
2022-10-30T21:31:14.060Z,101875.01
2022-10-30T21:33:42.365Z,101876.81
2022-10-30T21:36:28.290Z,101876.33
2022-10-30T21:38:58.967Z,101876.77
2022-10-30T21:41:27.384Z,101877.48
2022-10-30T21:43:57.338Z,101878.00
2022-10-30T21:46:28.280Z,101861.14
2022-10-30T21:49:04.418Z,101873.13
2022-10-30T21:51:33.245Z,101877.37
2022-10-30T21:54:01.269Z,101871.99
2022-10-30T21:56:46.853Z,101869.31
2022-10-30T21:59:15.341Z,101867.99
2022-10-30T22:02:01.071Z,101862.88
2022-10-30T22:04:49.677Z,101865.90
2022-10-30T22:07:18.762Z,101869.61
2022-10-30T22:09:46.901Z,101854.27
2022-10-30T22:12:14.945Z,101866.52
2022-10-30T22:14:43.023Z,101867.25
2022-10-30T22:17:11.160Z,101867.31
2022-10-30T22:19:56.988Z,101868.30
2022-10-30T22:22:25.279Z,101868.93
2022-10-30T22:24:53.337Z,101870.34
2022-10-30T22:27:21.405Z,101865.27
2022-10-30T22:29:49.375Z,101859.80
2022-10-30T22:32:17.422Z,101866.48
2022-10-30T22:34:45.443Z,101865.54
2022-10-30T22:37:13.471Z,101868.54
2022-10-30T22:39:41.743Z,101857.05
2022-10-30T22:42:09.795Z,101868.55
2022-10-30T22:44:37.847Z,101868.09
2022-10-30T22:47:05.891Z,101872.46
2022-10-30T22:49:33.952Z,101873.48
2022-10-30T22:52:02.046Z,101872.26
2022-10-30T22:54:30.558Z,101872.20
2022-10-30T22:56:58.651Z,101860.98
2022-10-30T22:59:26.927Z,101874.03
2022-10-30T23:01:54.976Z,101874.01
2022-10-30T23:04:23.163Z,101866.98
2022-10-30T23:06:51.200Z,101867.48
2022-10-30T23:09:23.541Z,101869.95
2022-10-30T23:11:51.585Z,101870.38
2022-10-30T23:14:19.681Z,101870.07
2022-10-30T23:16:47.799Z,101870.08
2022-10-30T23:19:16.149Z,101872.52
2022-10-30T23:21:44.244Z,101869.80
2022-10-30T23:24:12.426Z,101868.30
2022-10-30T23:26:40.450Z,101870.23
2022-10-30T23:29:08.845Z,101868.58
2022-10-30T23:31:39.514Z,101866.93
2022-10-30T23:34:10.659Z,101867.46
2022-10-30T23:36:39.369Z,101855.95
2022-10-30T23:39:11.405Z,101872.73
2022-10-30T23:41:41.401Z,101873.56
2022-10-30T23:44:14.640Z,101876.66
2022-10-30T23:46:43.269Z,101872.84
2022-10-30T23:49:11.646Z,101873.35
2022-10-30T23:51:40.019Z,101868.79
2022-10-30T23:54:08.253Z,101871.57
2022-10-30T23:56:36.263Z,101869.99
2022-10-30T23:59:04.751Z,101872.64
